Impacts METAR Board INFO
IDs:

KMSP - Minneapolis-St Paul, MN, US

Updated at: 1418 UTC 19 Nov 2017
Potential Impact None Slight Moderate High
Time19/02Z 19/03Z 19/04Z 19/05Z 19/06Z 19/07Z 19/08Z 19/09Z 19/10Z 19/11Z 19/12Z 19/13Z 19/14Z
VIS10 10 10 10 10 10 10 10 10 10 10 10 10
CIG-- -- -- -- 210 -- -- -- -- -- -- -- --
CoverFEWCLRCLRCLRBKNCLRCLRCLRCLRCLRCLRCLRFEW
FltCatVFRVFRVFRVFRVFRVFRVFRVFRVFRVFRVFRVFRVFR
WX--------------------------
WDir330330320320320310300280280280250240250
WSpd17 17 16 10 10 10 9 6 7 7 4 6 5
WGst25 22 -- 19 -- -- -- -- -- -- -- -- --
Raw hourly METARs
KMSP 190153Z 33017G25KT 10SM FEW035 M05/M11 A3001 RMK AO2 PK WND 32030/0120 SLP172 T10501111
KMSP 190253Z 33017G22KT 10SM CLR M06/M11 A3002 RMK AO2 SLP177 T10561111 51018
KMSP 190353Z 32016KT 10SM CLR M06/M11 A3003 RMK AO2 PK WND 33026/0313 SLP180 T10561106
KMSP 190453Z 32010G19KT 10SM CLR M06/M11 A3005 RMK AO2 SLP186 T10611106
KMSP 190553Z 32010KT 10SM BKN210 M06/M12 A3004 RMK AO2 SLP184 T10611117 11022 21061 400281061 50008
KMSP 190653Z 31010KT 10SM CLR M07/M12 A3005 RMK AO2 SLP188 T10671117
KMSP 190753Z 30009KT 10SM CLR M07/M12 A3007 RMK AO2 SLP194 T10671117
KMSP 190853Z 28006KT 10SM CLR M07/M12 A3009 RMK AO2 SLP201 T10721117 53015
KMSP 190953Z 28007KT 10SM CLR M07/M12 A3008 RMK AO2 SLP198 T10721117
KMSP 191053Z 28007KT 10SM CLR M08/M12 A3007 RMK AO2 SLP195 T10781117
KMSP 191153Z 25004KT 10SM CLR M07/M12 A3007 RMK AO2 SLP195 T10721117 11061 21078 56007
KMSP 191253Z 24006KT 10SM CLR M08/M11 A3009 RMK AO2 SLP202 T10781111
KMSP 191353Z 25005KT 10SM FEW250 M08/M11 A3008 RMK AO2 SLP200 T10781106